Airfield :
LOGIN :

Register | Disclaimer

   EN    FR    IT 

 










Legend :    VFR   Marginal VFR   IFR   Intensive IFR   Very Intensive IFR
Visi :
Ceiling :
>= 8 km
>= 3000ft
5 to 8 km
1000 to 3000 ft
1500m to 5 km
500 to 1000 ft
800 to 1500m
200 to 500 ft
< 800m
< 200 ft
Symbols :   Thunderstorms  Fog  Heavy snow  Heavy precipitations  Wind > 20 kt
SIGMETs :     Misc.  Thunderstorms  Icing  Turbulence  Mountain Waves  Volcanic Ashes






- Airport Elevation : 24 ft
- IATA code : IBZ


LEIB - Ibiza

CURRENT METAR :
  • 231600Z 09008KT 070V140 9999 SCT016 21/16 Q1016 NOSIG

EXPIRED METARs :
  • 231530Z 10009KT 9999 SCT020 21/16 Q1016 NOSIG
  • 231500Z 08009KT 060V120 9999 FEW020 22/16 Q1016 NOSIG
  • 231430Z 08010KT 050V110 9999 FEW020 22/16 Q1016 NOSIG
  • 231400Z 08010KT 050V110 CAVOK 22/16 Q1016 NOSIG
  • 231330Z 08011KT 060V130 9999 FEW020 22/16 Q1016 NOSIG
  • 231300Z 09011KT 050V120 9999 FEW020 22/17 Q1016 NOSIG
  • 231230Z 09012KT 050V110 9999 FEW020 22/16 Q1017 NOSIG
  • 231200Z 09010KT 060V130 9999 FEW020 22/16 Q1017 NOSIG
  • 231130Z 09008KT 060V140 9999 FEW020 22/15 Q1017 NOSIG

TAF TAF LEIB
Valid from the 23 at 15:00 until the 24 at 15:00 UTC


231400Z 2315/2415 08010KT 9999 FEW025 TX25/2413Z TN16/2405Z
PROB30
TEMPO 2400/2409 BKN012



MET'MAP, your aeronautical weather chart ! - Copyright ORBIFLY December 2007 - Disclaimer

ORBIFLY MET'MAP TEAM :

Programming & Development : Alexandra Zaïnal
Original concept : Baudouin d'Aumeries
Technical & hardware support : Manuel Goepfert
Assistance : Marc-Olivier Méhu




SOURCES & CREDITS :

   NOAA